sensor_id;sensor_type;location;lat;lon;timestamp;pressure;altitude;pressure_sealevel;temperature;humidity
4012;BME280;2020;48.682;9.024;2022-08-24T00:01:11;96597.00;;;17.89;57.60
4012;BME280;2020;48.682;9.024;2022-08-24T00:03:38;96603.44;;;17.79;58.28
4012;BME280;2020;48.682;9.024;2022-08-24T00:06:06;96595.38;;;17.81;57.89
4012;BME280;2020;48.682;9.024;2022-08-24T00:08:33;96600.63;;;17.88;57.73
4012;BME280;2020;48.682;9.024;2022-08-24T00:10:58;96599.47;;;17.97;57.38
4012;BME280;2020;48.682;9.024;2022-08-24T00:13:27;96591.56;;;17.97;56.83
4012;BME280;2020;48.682;9.024;2022-08-24T00:15:52;96595.81;;;17.98;57.04
4012;BME280;2020;48.682;9.024;2022-08-24T00:18:20;96589.63;;;17.64;58.26
4012;BME280;2020;48.682;9.024;2022-08-24T00:20:46;96599.75;;;17.67;58.38
4012;BME280;2020;48.682;9.024;2022-08-24T00:23:12;96592.44;;;17.56;58.84
4012;BME280;2020;48.682;9.024;2022-08-24T00:25:38;96589.22;;;17.60;58.70
4012;BME280;2020;48.682;9.024;2022-08-24T00:28:04;96587.22;;;17.69;58.57
4012;BME280;2020;48.682;9.024;2022-08-24T00:30:30;96579.94;;;17.71;58.23
4012;BME280;2020;48.682;9.024;2022-08-24T00:32:57;96589.06;;;17.75;57.76
4012;BME280;2020;48.682;9.024;2022-08-24T00:35:22;96590.06;;;17.74;57.47
4012;BME280;2020;48.682;9.024;2022-08-24T00:37:49;96588.06;;;17.76;57.67
4012;BME280;2020;48.682;9.024;2022-08-24T00:40:27;96581.56;;;17.65;58.30
4012;BME280;2020;48.682;9.024;2022-08-24T00:42:54;96585.19;;;17.71;58.44
4012;BME280;2020;48.682;9.024;2022-08-24T00:45:20;96582.34;;;17.66;58.41
4012;BME280;2020;48.682;9.024;2022-08-24T00:47:56;96587.19;;;17.56;58.73
4012;BME280;2020;48.682;9.024;2022-08-24T00:53:37;96582.91;;;17.48;59.03
4012;BME280;2020;48.682;9.024;2022-08-24T00:56:11;96585.94;;;17.51;58.99
4012;BME280;2020;48.682;9.024;2022-08-24T00:58:47;96586.34;;;17.48;58.99
4012;BME280;2020;48.682;9.024;2022-08-24T01:01:15;96581.03;;;17.35;59.32
4012;BME280;2020;48.682;9.024;2022-08-24T01:03:42;96571.72;;;17.39;59.04
4012;BME280;2020;48.682;9.024;2022-08-24T01:06:08;96572.56;;;17.39;59.15
4012;BME280;2020;48.682;9.024;2022-08-24T01:08:34;96577.78;;;17.33;58.95
4012;BME280;2020;48.682;9.024;2022-08-24T01:11:02;96577.09;;;17.17;59.67
4012;BME280;2020;48.682;9.024;2022-08-24T01:13:30;96573.84;;;17.15;59.12
4012;BME280;2020;48.682;9.024;2022-08-24T01:15:58;96578.41;;;17.00;60.33
4012;BME280;2020;48.682;9.024;2022-08-24T01:18:26;96580.28;;;17.06;59.79
4012;BME280;2020;48.682;9.024;2022-08-24T01:23:44;96588.78;;;17.08;60.11
4012;BME280;2020;48.682;9.024;2022-08-24T01:26:15;96576.78;;;16.99;60.04
4012;BME280;2020;48.682;9.024;2022-08-24T01:28:45;96589.47;;;16.95;60.69
4012;BME280;2020;48.682;9.024;2022-08-24T01:31:11;96581.72;;;16.87;60.52
4012;BME280;2020;48.682;9.024;2022-08-24T01:33:36;96585.97;;;16.88;60.48
4012;BME280;2020;48.682;9.024;2022-08-24T01:36:13;96588.00;;;16.86;60.19
4012;BME280;2020;48.682;9.024;2022-08-24T01:38:44;96589.13;;;16.70;61.39
4012;BME280;2020;48.682;9.024;2022-08-24T01:41:09;96590.75;;;16.71;61.06
4012;BME280;2020;48.682;9.024;2022-08-24T01:43:34;96586.72;;;16.75;60.94
4012;BME280;2020;48.682;9.024;2022-08-24T01:45:59;96590.25;;;16.60;61.74
4012;BME280;2020;48.682;9.024;2022-08-24T01:48:25;96582.50;;;16.52;61.75
4012;BME280;2020;48.682;9.024;2022-08-24T01:50:50;96591.00;;;16.54;61.59
4012;BME280;2020;48.682;9.024;2022-08-24T01:53:16;96590.19;;;16.54;61.65
4012;BME280;2020;48.682;9.024;2022-08-24T01:55:44;96590.88;;;16.41;62.10
4012;BME280;2020;48.682;9.024;2022-08-24T01:58:09;96589.84;;;16.35;62.66
4012;BME280;2020;48.682;9.024;2022-08-24T02:00:35;96588.72;;;16.44;62.45
4012;BME280;2020;48.682;9.024;2022-08-24T02:03:02;96591.75;;;16.48;61.64
4012;BME280;2020;48.682;9.024;2022-08-24T02:05:27;96589.59;;;16.30;62.64
4012;BME280;2020;48.682;9.024;2022-08-24T02:07:53;96582.38;;;16.38;62.39
4012;BME280;2020;48.682;9.024;2022-08-24T02:10:19;96582.03;;;16.20;63.13
4012;BME280;2020;48.682;9.024;2022-08-24T02:12:46;96586.34;;;16.28;63.16
4012;BME280;2020;48.682;9.024;2022-08-24T02:15:25;96584.66;;;16.20;63.21
4012;BME280;2020;48.682;9.024;2022-08-24T02:17:52;96587.84;;;16.15;62.91
4012;BME280;2020;48.682;9.024;2022-08-24T02:20:17;96583.91;;;16.26;62.72
4012;BME280;2020;48.682;9.024;2022-08-24T02:22:43;96594.03;;;16.29;62.30
4012;BME280;2020;48.682;9.024;2022-08-24T02:25:08;96585.91;;;16.24;62.27
4012;BME280;2020;48.682;9.024;2022-08-24T02:27:33;96592.41;;;16.28;61.92
4012;BME280;2020;48.682;9.024;2022-08-24T02:29:59;96589.97;;;16.27;62.48
4012;BME280;2020;48.682;9.024;2022-08-24T02:32:24;96590.78;;;16.27;62.16
4012;BME280;2020;48.682;9.024;2022-08-24T02:34:49;96594.78;;;16.23;62.49
4012;BME280;2020;48.682;9.024;2022-08-24T02:37:15;96599.78;;;16.18;62.71
4012;BME280;2020;48.682;9.024;2022-08-24T02:39:40;96592.91;;;15.95;64.00
4012;BME280;2020;48.682;9.024;2022-08-24T02:42:05;96592.34;;;15.85;64.30
4012;BME280;2020;48.682;9.024;2022-08-24T02:44:30;96592.47;;;15.91;63.89
4012;BME280;2020;48.682;9.024;2022-08-24T02:46:56;96591.72;;;15.98;63.51
4012;BME280;2020;48.682;9.024;2022-08-24T02:49:21;96599.41;;;15.99;63.16
4012;BME280;2020;48.682;9.024;2022-08-24T02:51:47;96585.66;;;15.97;62.89
4012;BME280;2020;48.682;9.024;2022-08-24T02:54:14;96583.22;;;15.96;62.84
4012;BME280;2020;48.682;9.024;2022-08-24T02:56:44;96581.16;;;15.91;63.11
4012;BME280;2020;48.682;9.024;2022-08-24T02:59:09;96584.41;;;15.93;62.98
4012;BME280;2020;48.682;9.024;2022-08-24T03:01:34;96586.41;;;15.91;62.91
4012;BME280;2020;48.682;9.024;2022-08-24T03:03:59;96590.66;;;15.92;62.33
4012;BME280;2020;48.682;9.024;2022-08-24T03:06:25;96593.09;;;15.78;63.21
4012;BME280;2020;48.682;9.024;2022-08-24T03:08:50;96582.59;;;15.78;63.39
4012;BME280;2020;48.682;9.024;2022-08-24T03:11:16;96584.53;;;15.70;63.78
4012;BME280;2020;48.682;9.024;2022-08-24T03:13:41;96579.28;;;15.70;63.63
4012;BME280;2020;48.682;9.024;2022-08-24T03:16:07;96575.97;;;15.61;63.56
4012;BME280;2020;48.682;9.024;2022-08-24T03:18:33;96580.56;;;15.59;64.38
4012;BME280;2020;48.682;9.024;2022-08-24T03:21:00;96580.38;;;15.60;64.25
4012;BME280;2020;48.682;9.024;2022-08-24T03:23:26;96582.56;;;15.57;64.30
4012;BME280;2020;48.682;9.024;2022-08-24T03:25:55;96584.03;;;15.44;65.03
4012;BME280;2020;48.682;9.024;2022-08-24T03:28:22;96584.41;;;15.26;65.45
4012;BME280;2020;48.682;9.024;2022-08-24T03:30:48;96586.03;;;15.27;65.12
4012;BME280;2020;48.682;9.024;2022-08-24T03:33:13;96586.88;;;15.28;65.63
4012;BME280;2020;48.682;9.024;2022-08-24T03:35:39;96592.66;;;15.38;64.93
4012;BME280;2020;48.682;9.024;2022-08-24T03:38:05;96583.41;;;15.42;63.47
4012;BME280;2020;48.682;9.024;2022-08-24T03:40:31;96586.66;;;15.44;63.95
4012;BME280;2020;48.682;9.024;2022-08-24T03:43:00;96589.28;;;15.44;64.43
4012;BME280;2020;48.682;9.024;2022-08-24T03:45:27;96583.78;;;15.39;63.78
4012;BME280;2020;48.682;9.024;2022-08-24T03:47:53;96579.00;;;15.13;66.36
4012;BME280;2020;48.682;9.024;2022-08-24T03:50:20;96585.03;;;15.13;65.94
4012;BME280;2020;48.682;9.024;2022-08-24T03:52:46;96579.78;;;15.13;65.01
4012;BME280;2020;48.682;9.024;2022-08-24T03:55:12;96583.88;;;15.16;65.00
4012;BME280;2020;48.682;9.024;2022-08-24T03:57:38;96588.41;;;15.22;64.84
4012;BME280;2020;48.682;9.024;2022-08-24T04:00:05;96589.13;;;15.16;64.20
4012;BME280;2020;48.682;9.024;2022-08-24T04:02:31;96590.19;;;15.21;64.92
4012;BME280;2020;48.682;9.024;2022-08-24T04:04:57;96593.75;;;15.29;64.61
4012;BME280;2020;48.682;9.024;2022-08-24T04:07:22;96592.28;;;15.11;65.12
4012;BME280;2020;48.682;9.024;2022-08-24T04:09:48;96595.88;;;15.10;65.27
4012;BME280;2020;48.682;9.024;2022-08-24T04:12:14;96593.34;;;15.02;65.48
4012;BME280;2020;48.682;9.024;2022-08-24T04:14:39;96592.63;;;15.08;65.46
4012;BME280;2020;48.682;9.024;2022-08-24T04:17:05;96589.75;;;15.03;65.03
4012;BME280;2020;48.682;9.024;2022-08-24T04:19:30;96594.25;;;14.79;66.59
4012;BME280;2020;48.682;9.024;2022-08-24T04:21:57;96592.44;;;14.95;66.04
4012;BME280;2020;48.682;9.024;2022-08-24T04:24:23;96595.63;;;14.90;65.34
4012;BME280;2020;48.682;9.024;2022-08-24T04:26:49;96602.50;;;14.91;65.91
4012;BME280;2020;48.682;9.024;2022-08-24T04:29:16;96603.66;;;14.88;65.03
4012;BME280;2020;48.682;9.024;2022-08-24T04:31:42;96598.06;;;14.91;64.07
4012;BME280;2020;48.682;9.024;2022-08-24T04:34:07;96607.00;;;14.97;64.93
4012;BME280;2020;48.682;9.024;2022-08-24T04:36:33;96606.28;;;14.88;64.82
4012;BME280;2020;48.682;9.024;2022-08-24T04:38:59;96608.88;;;14.88;65.58
4012;BME280;2020;48.682;9.024;2022-08-24T04:41:25;96602.38;;;14.84;64.98
4012;BME280;2020;48.682;9.024;2022-08-24T04:43:51;96615.19;;;14.79;66.59
4012;BME280;2020;48.682;9.024;2022-08-24T04:46:17;96611.22;;;14.83;65.57
4012;BME280;2020;48.682;9.024;2022-08-24T04:48:45;96611.72;;;14.87;65.36
4012;BME280;2020;48.682;9.024;2022-08-24T04:51:12;96607.97;;;14.81;65.34
4012;BME280;2020;48.682;9.024;2022-08-24T04:53:38;96616.22;;;14.93;65.51
4012;BME280;2020;48.682;9.024;2022-08-24T04:56:13;96622.91;;;14.96;65.51
4012;BME280;2020;48.682;9.024;2022-08-24T04:58:39;96619.94;;;14.99;64.67
4012;BME280;2020;48.682;9.024;2022-08-24T05:01:24;96616.03;;;14.95;65.43
4012;BME280;2020;48.682;9.024;2022-08-24T05:03:52;96625.25;;;14.90;66.63
4012;BME280;2020;48.682;9.024;2022-08-24T05:06:19;96620.91;;;14.98;66.05
4012;BME280;2020;48.682;9.024;2022-08-24T05:08:45;96626.16;;;14.98;66.28
4012;BME280;2020;48.682;9.024;2022-08-24T05:11:12;96627.50;;;14.94;66.46
4012;BME280;2020;48.682;9.024;2022-08-24T05:13:38;96633.94;;;14.91;67.07
4012;BME280;2020;48.682;9.024;2022-08-24T05:16:06;96632.75;;;14.94;67.45
4012;BME280;2020;48.682;9.024;2022-08-24T05:18:32;96631.25;;;14.99;66.82
4012;BME280;2020;48.682;9.024;2022-08-24T05:20:58;96629.78;;;15.12;66.69
4012;BME280;2020;48.682;9.024;2022-08-24T05:23:24;96626.72;;;15.23;66.38
4012;BME280;2020;48.682;9.024;2022-08-24T05:25:49;96623.22;;;15.31;65.80
4012;BME280;2020;48.682;9.024;2022-08-24T05:28:15;96631.25;;;15.44;62.84
4012;BME280;2020;48.682;9.024;2022-08-24T05:30:40;96634.03;;;15.58;62.49
4012;BME280;2020;48.682;9.024;2022-08-24T05:33:05;96631.31;;;15.66;63.74
4012;BME280;2020;48.682;9.024;2022-08-24T05:35:36;96626.97;;;15.73;63.57
4012;BME280;2020;48.682;9.024;2022-08-24T05:38:02;96632.34;;;15.87;63.09
4012;BME280;2020;48.682;9.024;2022-08-24T05:40:27;96633.19;;;15.87;62.92
4012;BME280;2020;48.682;9.024;2022-08-24T05:42:53;96640.16;;;15.95;61.20
4012;BME280;2020;48.682;9.024;2022-08-24T05:45:18;96629.66;;;15.95;61.46
4012;BME280;2020;48.682;9.024;2022-08-24T05:47:43;96630.16;;;16.05;62.24
4012;BME280;2020;48.682;9.024;2022-08-24T05:50:09;96636.03;;;16.29;62.56
4012;BME280;2020;48.682;9.024;2022-08-24T05:52:34;96639.53;;;16.36;61.81
4012;BME280;2020;48.682;9.024;2022-08-24T05:55:00;96641.53;;;16.56;58.48
4012;BME280;2020;48.682;9.024;2022-08-24T05:57:30;96638.03;;;16.71;60.36
4012;BME280;2020;48.682;9.024;2022-08-24T05:59:56;96642.56;;;16.84;60.07
4012;BME280;2020;48.682;9.024;2022-08-24T06:02:21;96646.25;;;16.89;59.63
4012;BME280;2020;48.682;9.024;2022-08-24T06:04:47;96648.81;;;17.04;59.57
4012;BME280;2020;48.682;9.024;2022-08-24T06:07:13;96648.88;;;17.11;60.68
4012;BME280;2020;48.682;9.024;2022-08-24T06:09:39;96649.56;;;17.27;59.25
4012;BME280;2020;48.682;9.024;2022-08-24T06:12:05;96648.41;;;17.36;59.75
4012;BME280;2020;48.682;9.024;2022-08-24T06:14:31;96653.13;;;17.47;59.05
4012;BME280;2020;48.682;9.024;2022-08-24T06:16:58;96657.66;;;17.60;59.95
4012;BME280;2020;48.682;9.024;2022-08-24T06:19:24;96648.19;;;17.73;59.45
4012;BME280;2020;48.682;9.024;2022-08-24T06:21:51;96641.53;;;17.83;58.04
4012;BME280;2020;48.682;9.024;2022-08-24T06:24:18;96648.50;;;17.98;57.28
4012;BME280;2020;48.682;9.024;2022-08-24T06:26:44;96646.94;;;18.10;58.21
4012;BME280;2020;48.682;9.024;2022-08-24T06:29:28;96647.75;;;18.24;56.93
4012;BME280;2020;48.682;9.024;2022-08-24T06:31:54;96639.69;;;18.53;56.53
4012;BME280;2020;48.682;9.024;2022-08-24T06:34:20;96639.09;;;18.64;56.34
4012;BME280;2020;48.682;9.024;2022-08-24T06:36:46;96634.00;;;18.83;55.33
4012;BME280;2020;48.682;9.024;2022-08-24T06:39:11;96634.81;;;18.90;55.13
4012;BME280;2020;48.682;9.024;2022-08-24T06:41:37;96638.88;;;18.86;53.97
4012;BME280;2020;48.682;9.024;2022-08-24T06:44:04;96638.28;;;18.84;54.59
4012;BME280;2020;48.682;9.024;2022-08-24T06:46:29;96645.78;;;18.87;54.84
4012;BME280;2020;48.682;9.024;2022-08-24T06:48:55;96648.22;;;18.82;54.33
4012;BME280;2020;48.682;9.024;2022-08-24T06:51:22;96646.78;;;18.86;54.07
4012;BME280;2020;48.682;9.024;2022-08-24T06:53:49;96656.34;;;19.07;54.04
4012;BME280;2020;48.682;9.024;2022-08-24T06:56:15;96652.88;;;19.20;53.55
4012;BME280;2020;48.682;9.024;2022-08-24T06:58:40;96653.50;;;19.22;53.13
4012;BME280;2020;48.682;9.024;2022-08-24T07:01:14;96655.88;;;19.37;53.21
4012;BME280;2020;48.682;9.024;2022-08-24T07:03:40;96658.28;;;19.52;53.38
4012;BME280;2020;48.682;9.024;2022-08-24T07:06:05;96660.47;;;19.69;52.56
4012;BME280;2020;48.682;9.024;2022-08-24T07:08:32;96665.28;;;19.85;51.80
4012;BME280;2020;48.682;9.024;2022-08-24T07:10:57;96660.16;;;20.04;50.94
4012;BME280;2020;48.682;9.024;2022-08-24T07:13:23;96661.25;;;20.22;50.43
4012;BME280;2020;48.682;9.024;2022-08-24T07:15:50;96664.00;;;20.40;49.94
4012;BME280;2020;48.682;9.024;2022-08-24T07:18:17;96662.38;;;20.71;49.74
4012;BME280;2020;48.682;9.024;2022-08-24T07:20:44;96658.53;;;20.99;48.64
4012;BME280;2020;48.682;9.024;2022-08-24T07:23:10;96656.78;;;21.30;47.70
4012;BME280;2020;48.682;9.024;2022-08-24T07:25:38;96657.09;;;21.41;47.94
4012;BME280;2020;48.682;9.024;2022-08-24T07:28:04;96651.78;;;21.59;46.59
4012;BME280;2020;48.682;9.024;2022-08-24T07:30:29;96665.47;;;21.56;46.50
4012;BME280;2020;48.682;9.024;2022-08-24T07:32:55;96660.78;;;21.77;46.88
4012;BME280;2020;48.682;9.024;2022-08-24T07:35:22;96661.19;;;22.11;46.30
4012;BME280;2020;48.682;9.024;2022-08-24T07:37:47;96662.78;;;22.43;45.18
4012;BME280;2020;48.682;9.024;2022-08-24T07:40:13;96664.59;;;22.61;44.81
4012;BME280;2020;48.682;9.024;2022-08-24T07:42:39;96655.63;;;22.74;44.51
4012;BME280;2020;48.682;9.024;2022-08-24T07:45:05;96658.63;;;23.01;43.78
4012;BME280;2020;48.682;9.024;2022-08-24T07:47:30;96658.78;;;23.18;44.21
4012;BME280;2020;48.682;9.024;2022-08-24T07:49:56;96662.81;;;23.45;43.80
4012;BME280;2020;48.682;9.024;2022-08-24T07:52:21;96668.41;;;23.72;42.79
4012;BME280;2020;48.682;9.024;2022-08-24T07:54:46;96659.31;;;24.09;41.49
4012;BME280;2020;48.682;9.024;2022-08-24T07:57:11;96656.28;;;24.17;41.07
4012;BME280;2020;48.682;9.024;2022-08-24T07:59:37;96654.28;;;24.24;41.13
4012;BME280;2020;48.682;9.024;2022-08-24T08:02:03;96657.22;;;24.40;40.94
4012;BME280;2020;48.682;9.024;2022-08-24T08:04:29;96657.72;;;24.54;40.42
4012;BME280;2020;48.682;9.024;2022-08-24T08:06:56;96662.56;;;24.57;40.34
4012;BME280;2020;48.682;9.024;2022-08-24T08:09:21;96656.97;;;24.88;39.88
4012;BME280;2020;48.682;9.024;2022-08-24T08:11:46;96661.47;;;25.04;39.66
4012;BME280;2020;48.682;9.024;2022-08-24T08:14:13;96655.03;;;25.00;39.46
4012;BME280;2020;48.682;9.024;2022-08-24T08:16:39;96659.16;;;25.30;38.78
4012;BME280;2020;48.682;9.024;2022-08-24T08:19:05;96662.47;;;25.54;36.98
4012;BME280;2020;48.682;9.024;2022-08-24T08:21:30;96664.44;;;25.64;36.61
4012;BME280;2020;48.682;9.024;2022-08-24T08:24:14;96663.34;;;25.43;36.00
4012;BME280;2020;48.682;9.024;2022-08-24T08:26:41;96665.88;;;25.72;36.59
4012;BME280;2020;48.682;9.024;2022-08-24T08:29:07;96671.38;;;25.65;35.70
4012;BME280;2020;48.682;9.024;2022-08-24T08:31:35;96670.75;;;25.80;35.90
4012;BME280;2020;48.682;9.024;2022-08-24T08:34:00;96667.28;;;25.80;35.88
4012;BME280;2020;48.682;9.024;2022-08-24T08:36:26;96672.00;;;25.95;36.21
4012;BME280;2020;48.682;9.024;2022-08-24T08:38:51;96670.94;;;25.96;35.56
4012;BME280;2020;48.682;9.024;2022-08-24T08:44:12;96667.53;;;26.01;35.13
4012;BME280;2020;48.682;9.024;2022-08-24T08:47:01;96663.56;;;26.25;34.38
4012;BME280;2020;48.682;9.024;2022-08-24T08:50:03;96664.13;;;26.27;34.85
4012;BME280;2020;48.682;9.024;2022-08-24T08:58:49;96657.06;;;26.76;33.35
4012;BME280;2020;48.682;9.024;2022-08-24T09:07:14;96652.66;;;26.60;33.58
4012;BME280;2020;48.682;9.024;2022-08-24T09:10:07;96653.63;;;26.81;33.96
4012;BME280;2020;48.682;9.024;2022-08-24T09:18:26;96647.13;;;26.66;32.20
4012;BME280;2020;48.682;9.024;2022-08-24T09:21:14;96649.19;;;26.92;33.20
4012;BME280;2020;48.682;9.024;2022-08-24T09:26:25;96654.22;;;27.26;32.00
4012;BME280;2020;48.682;9.024;2022-08-24T09:29:02;96648.94;;;27.36;31.17
4012;BME280;2020;48.682;9.024;2022-08-24T09:34:15;96650.31;;;27.44;31.82
4012;BME280;2020;48.682;9.024;2022-08-24T09:39:46;96655.50;;;27.61;30.66
4012;BME280;2020;48.682;9.024;2022-08-24T09:44:59;96648.59;;;27.76;30.15
4012;BME280;2020;48.682;9.024;2022-08-24T09:56:30;96645.22;;;28.01;28.64
4012;BME280;2020;48.682;9.024;2022-08-24T10:07:13;96645.06;;;28.54;27.75
4012;BME280;2020;48.682;9.024;2022-08-24T10:09:56;96635.94;;;28.35;27.75
4012;BME280;2020;48.682;9.024;2022-08-24T10:12:38;96630.06;;;28.69;27.20
4012;BME280;2020;48.682;9.024;2022-08-24T10:15:08;96639.72;;;28.96;26.08
4012;BME280;2020;48.682;9.024;2022-08-24T10:24:09;96633.19;;;29.38;26.12
4012;BME280;2020;48.682;9.024;2022-08-24T10:27:03;96623.59;;;29.22;24.11
4012;BME280;2020;48.682;9.024;2022-08-24T10:29:41;96627.28;;;29.36;26.39
4012;BME280;2020;48.682;9.024;2022-08-24T10:35:11;96615.50;;;29.42;26.51
4012;BME280;2020;48.682;9.024;2022-08-24T10:41:34;96617.47;;;29.82;25.86
4012;BME280;2020;48.682;9.024;2022-08-24T10:44:26;96614.81;;;29.76;26.16
4012;BME280;2020;48.682;9.024;2022-08-24T10:46:59;96608.88;;;29.90;26.45
4012;BME280;2020;48.682;9.024;2022-08-24T10:49:56;96620.16;;;29.87;26.42
4012;BME280;2020;48.682;9.024;2022-08-24T10:53:03;96616.97;;;29.74;26.73
4012;BME280;2020;48.682;9.024;2022-08-24T10:55:32;96611.34;;;29.76;26.12
4012;BME280;2020;48.682;9.024;2022-08-24T10:58:04;96618.00;;;29.89;26.62
4012;BME280;2020;48.682;9.024;2022-08-24T11:00:30;96613.59;;;30.14;25.71
4012;BME280;2020;48.682;9.024;2022-08-24T11:03:06;96608.78;;;30.11;25.92
4012;BME280;2020;48.682;9.024;2022-08-24T11:05:53;96610.09;;;30.13;26.51
4012;BME280;2020;48.682;9.024;2022-08-24T11:08:24;96603.59;;;30.59;25.92
4012;BME280;2020;48.682;9.024;2022-08-24T11:11:13;96610.16;;;30.43;25.96
4012;BME280;2020;48.682;9.024;2022-08-24T11:13:50;96606.56;;;30.58;26.00
4012;BME280;2020;48.682;9.024;2022-08-24T11:19:00;96598.38;;;30.39;26.06
4012;BME280;2020;48.682;9.024;2022-08-24T11:27:00;96607.28;;;29.89;25.95
4012;BME280;2020;48.682;9.024;2022-08-24T11:38:06;96584.56;;;30.85;25.71
4012;BME280;2020;48.682;9.024;2022-08-24T11:40:32;96577.31;;;31.10;25.02
4012;BME280;2020;48.682;9.024;2022-08-24T11:45:49;96586.66;;;31.42;25.66
4012;BME280;2020;48.682;9.024;2022-08-24T11:51:08;96584.13;;;31.75;24.84
4012;BME280;2020;48.682;9.024;2022-08-24T11:53:39;96582.06;;;31.67;24.47
4012;BME280;2020;48.682;9.024;2022-08-24T11:59:02;96585.25;;;31.69;24.38
4012;BME280;2020;48.682;9.024;2022-08-24T12:01:47;96585.00;;;31.46;25.02
4012;BME280;2020;48.682;9.024;2022-08-24T12:04:34;96584.38;;;31.55;25.26
4012;BME280;2020;48.682;9.024;2022-08-24T12:07:06;96580.16;;;31.24;25.69
4012;BME280;2020;48.682;9.024;2022-08-24T12:12:53;96573.78;;;31.83;24.63
4012;BME280;2020;48.682;9.024;2022-08-24T12:15:12;96586.38;;;31.87;23.93
4012;BME280;2020;48.682;9.024;2022-08-24T12:17:43;96571.28;;;31.67;23.77
4012;BME280;2020;48.682;9.024;2022-08-24T12:22:55;96571.75;;;31.74;23.08
4012;BME280;2020;48.682;9.024;2022-08-24T12:25:21;96574.19;;;31.71;23.34
4012;BME280;2020;48.682;9.024;2022-08-24T12:28:07;96565.44;;;31.41;23.80
4012;BME280;2020;48.682;9.024;2022-08-24T12:30:34;96566.16;;;30.98;23.03
4012;BME280;2020;48.682;9.024;2022-08-24T12:33:07;96572.03;;;30.75;22.85
4012;BME280;2020;48.682;9.024;2022-08-24T12:35:40;96569.16;;;30.96;23.27
4012;BME280;2020;48.682;9.024;2022-08-24T12:38:14;96564.94;;;31.39;22.24
4012;BME280;2020;48.682;9.024;2022-08-24T12:40:42;96557.75;;;31.34;22.53
4012;BME280;2020;48.682;9.024;2022-08-24T12:43:14;96565.91;;;31.67;23.10
4012;BME280;2020;48.682;9.024;2022-08-24T12:45:41;96556.63;;;31.78;22.57
4012;BME280;2020;48.682;9.024;2022-08-24T12:53:35;96562.00;;;32.36;22.31
4012;BME280;2020;48.682;9.024;2022-08-24T12:59:24;96562.41;;;32.24;21.30
4012;BME280;2020;48.682;9.024;2022-08-24T13:15:18;96550.38;;;32.02;23.25
4012;BME280;2020;48.682;9.024;2022-08-24T13:17:44;96555.66;;;32.27;22.08
4012;BME280;2020;48.682;9.024;2022-08-24T13:44:36;96536.59;;;30.98;20.98
4012;BME280;2020;48.682;9.024;2022-08-24T13:47:13;96543.00;;;31.50;22.10
4012;BME280;2020;48.682;9.024;2022-08-24T13:52:24;96532.38;;;31.59;22.36
4012;BME280;2020;48.682;9.024;2022-08-24T13:57:49;96537.69;;;32.22;21.76
4012;BME280;2020;48.682;9.024;2022-08-24T14:00:37;96540.19;;;32.18;21.60
4012;BME280;2020;48.682;9.024;2022-08-24T14:08:52;96524.06;;;31.12;21.93
4012;BME280;2020;48.682;9.024;2022-08-24T14:19:45;96515.84;;;30.79;22.31
4012;BME280;2020;48.682;9.024;2022-08-24T14:22:28;96521.91;;;31.14;22.83
4012;BME280;2020;48.682;9.024;2022-08-24T14:25:10;96517.22;;;31.49;21.25
4012;BME280;2020;48.682;9.024;2022-08-24T14:27:44;96519.25;;;31.58;21.37
4012;BME280;2020;48.682;9.024;2022-08-24T14:32:46;96516.56;;;30.90;22.57
4012;BME280;2020;48.682;9.024;2022-08-24T14:35:37;96520.78;;;30.72;21.68
4012;BME280;2020;48.682;9.024;2022-08-24T14:38:20;96511.53;;;31.07;20.50
4012;BME280;2020;48.682;9.024;2022-08-24T14:41:27;96508.72;;;30.93;22.88
4012;BME280;2020;48.682;9.024;2022-08-24T14:44:04;96507.41;;;31.15;23.59
4012;BME280;2020;48.682;9.024;2022-08-24T14:46:53;96501.50;;;31.13;24.06
4012;BME280;2020;48.682;9.024;2022-08-24T14:50:04;96512.56;;;31.36;23.55
4012;BME280;2020;48.682;9.024;2022-08-24T14:55:36;96514.03;;;30.99;23.62
4012;BME280;2020;48.682;9.024;2022-08-24T15:01:05;96508.47;;;31.19;22.75
4012;BME280;2020;48.682;9.024;2022-08-24T15:03:58;96494.44;;;31.23;22.29
4012;BME280;2020;48.682;9.024;2022-08-24T15:06:41;96502.03;;;31.15;23.33
4012;BME280;2020;48.682;9.024;2022-08-24T15:11:47;96514.16;;;31.37;22.65
4012;BME280;2020;48.682;9.024;2022-08-24T15:14:50;96508.44;;;30.71;24.08
4012;BME280;2020;48.682;9.024;2022-08-24T15:17:20;96498.16;;;30.78;23.71
4012;BME280;2020;48.682;9.024;2022-08-24T15:20:06;96501.34;;;31.04;24.22
4012;BME280;2020;48.682;9.024;2022-08-24T15:27:56;96504.94;;;30.41;25.82
4012;BME280;2020;48.682;9.024;2022-08-24T15:30:28;96501.81;;;30.63;25.38
4012;BME280;2020;48.682;9.024;2022-08-24T15:33:08;96506.44;;;29.88;26.34
4012;BME280;2020;48.682;9.024;2022-08-24T15:35:36;96506.38;;;29.93;26.51
4012;BME280;2020;48.682;9.024;2022-08-24T15:38:30;96504.19;;;30.05;26.77
4012;BME280;2020;48.682;9.024;2022-08-24T15:43:27;96505.34;;;30.24;27.33
4012;BME280;2020;48.682;9.024;2022-08-24T15:45:52;96503.22;;;29.86;27.54
4012;BME280;2020;48.682;9.024;2022-08-24T15:48:20;96504.81;;;29.82;27.77
4012;BME280;2020;48.682;9.024;2022-08-24T15:50:48;96509.59;;;29.95;27.97
4012;BME280;2020;48.682;9.024;2022-08-24T15:53:35;96505.44;;;29.73;28.43
4012;BME280;2020;48.682;9.024;2022-08-24T15:56:31;96506.50;;;29.72;29.28
4012;BME280;2020;48.682;9.024;2022-08-24T15:59:10;96507.75;;;29.35;30.07
4012;BME280;2020;48.682;9.024;2022-08-24T16:01:35;96509.69;;;29.29;30.54
4012;BME280;2020;48.682;9.024;2022-08-24T16:04:40;96509.75;;;29.09;30.77
4012;BME280;2020;48.682;9.024;2022-08-24T16:07:05;96508.53;;;28.70;31.76
4012;BME280;2020;48.682;9.024;2022-08-24T16:09:34;96515.75;;;28.64;32.13
4012;BME280;2020;48.682;9.024;2022-08-24T16:12:26;96510.13;;;28.81;32.37
4012;BME280;2020;48.682;9.024;2022-08-24T16:15:08;96520.84;;;28.71;32.37
4012;BME280;2020;48.682;9.024;2022-08-24T16:17:39;96515.50;;;28.40;32.89
4012;BME280;2020;48.682;9.024;2022-08-24T16:20:11;96515.75;;;28.54;32.99
4012;BME280;2020;48.682;9.024;2022-08-24T16:22:46;96512.81;;;28.45;32.86
4012;BME280;2020;48.682;9.024;2022-08-24T16:27:56;96512.81;;;28.45;33.12
4012;BME280;2020;48.682;9.024;2022-08-24T16:30:38;96505.34;;;28.37;33.74
4012;BME280;2020;48.682;9.024;2022-08-24T16:33:04;96513.88;;;28.49;33.82
4012;BME280;2020;48.682;9.024;2022-08-24T16:35:29;96517.63;;;28.48;33.97
4012;BME280;2020;48.682;9.024;2022-08-24T16:37:56;96523.53;;;28.24;34.10
4012;BME280;2020;48.682;9.024;2022-08-24T16:40:22;96521.38;;;28.11;34.30
4012;BME280;2020;48.682;9.024;2022-08-24T16:42:49;96521.38;;;27.85;34.74
4012;BME280;2020;48.682;9.024;2022-08-24T16:45:18;96520.78;;;27.57;35.85